sensor_id;sensor_type;location;lat;lon;timestamp;pressure;altitude;pressure_sealevel;temperature;humidity
66668;BME280;57205;51.438;-2.006;2022-10-18T00:01:01;101819.56;;;8.07;91.29
66668;BME280;57205;51.438;-2.006;2022-10-18T00:03:26;101815.69;;;8.03;91.16
66668;BME280;57205;51.438;-2.006;2022-10-18T00:05:52;101822.28;;;8.00;91.36
66668;BME280;57205;51.438;-2.006;2022-10-18T00:08:18;101812.09;;;7.90;90.29
66668;BME280;57205;51.438;-2.006;2022-10-18T00:10:44;101808.91;;;7.82;90.12
66668;BME280;57205;51.438;-2.006;2022-10-18T00:13:10;101815.09;;;7.76;89.34
66668;BME280;57205;51.438;-2.006;2022-10-18T00:15:36;101824.16;;;7.68;89.51
66668;BME280;57205;51.438;-2.006;2022-10-18T00:18:02;101814.41;;;7.56;89.18
66668;BME280;57205;51.438;-2.006;2022-10-18T00:20:28;101824.69;;;7.52;89.26
66668;BME280;57205;51.438;-2.006;2022-10-18T00:22:53;101819.81;;;7.43;88.55
66668;BME280;57205;51.438;-2.006;2022-10-18T00:25:19;101820.91;;;7.35;88.76
66668;BME280;57205;51.438;-2.006;2022-10-18T00:27:44;101823.34;;;7.30;88.54
66668;BME280;57205;51.438;-2.006;2022-10-18T00:30:10;101823.00;;;7.20;88.86
66668;BME280;57205;51.438;-2.006;2022-10-18T00:32:40;101830.00;;;7.15;89.22
66668;BME280;57205;51.438;-2.006;2022-10-18T00:35:06;101827.34;;;7.15;90.01
66668;BME280;57205;51.438;-2.006;2022-10-18T00:37:33;101829.78;;;7.16;89.97
66668;BME280;57205;51.438;-2.006;2022-10-18T00:39:58;101823.63;;;7.16;90.28
66668;BME280;57205;51.438;-2.006;2022-10-18T00:42:29;101825.69;;;7.14;89.94
66668;BME280;57205;51.438;-2.006;2022-10-18T00:45:14;101831.41;;;7.17;90.03
66668;BME280;57205;51.438;-2.006;2022-10-18T00:47:41;101831.84;;;7.14;89.87
66668;BME280;57205;51.438;-2.006;2022-10-18T00:50:08;101829.63;;;7.05;89.75
66668;BME280;57205;51.438;-2.006;2022-10-18T00:52:38;101830.28;;;7.00;89.82
66668;BME280;57205;51.438;-2.006;2022-10-18T00:55:04;101832.53;;;6.97;89.67
66668;BME280;57205;51.438;-2.006;2022-10-18T00:57:30;101829.28;;;6.95;90.23
66668;BME280;57205;51.438;-2.006;2022-10-18T00:59:57;101837.66;;;6.91;90.02
66668;BME280;57205;51.438;-2.006;2022-10-18T01:02:23;101832.97;;;6.87;90.46
66668;BME280;57205;51.438;-2.006;2022-10-18T01:04:49;101830.53;;;6.85;90.61
66668;BME280;57205;51.438;-2.006;2022-10-18T01:07:36;101834.81;;;6.86;90.74
66668;BME280;57205;51.438;-2.006;2022-10-18T01:16:06;101843.97;;;6.97;91.59
66668;BME280;57205;51.438;-2.006;2022-10-18T01:18:41;101845.63;;;6.98;91.44
66668;BME280;57205;51.438;-2.006;2022-10-18T01:29:31;101845.84;;;6.97;91.39
66668;BME280;57205;51.438;-2.006;2022-10-18T01:32:09;101853.84;;;6.97;90.98
66668;BME280;57205;51.438;-2.006;2022-10-18T01:34:38;101851.97;;;6.97;90.84
66668;BME280;57205;51.438;-2.006;2022-10-18T01:37:08;101853.22;;;6.88;91.07
66668;BME280;57205;51.438;-2.006;2022-10-18T01:39:37;101859.38;;;6.82;91.20
66668;BME280;57205;51.438;-2.006;2022-10-18T01:42:07;101856.31;;;6.78;91.17
66668;BME280;57205;51.438;-2.006;2022-10-18T01:44:36;101865.34;;;6.77;90.66
66668;BME280;57205;51.438;-2.006;2022-10-18T01:47:05;101868.81;;;6.71;89.49
66668;BME280;57205;51.438;-2.006;2022-10-18T01:49:31;101863.13;;;6.61;89.19
66668;BME280;57205;51.438;-2.006;2022-10-18T01:51:58;101869.47;;;6.54;89.17
66668;BME280;57205;51.438;-2.006;2022-10-18T01:54:35;101878.09;;;6.43;89.55
66668;BME280;57205;51.438;-2.006;2022-10-18T01:57:06;101882.34;;;6.37;89.91
66668;BME280;57205;51.438;-2.006;2022-10-18T02:02:19;101884.44;;;6.35;90.34
66668;BME280;57205;51.438;-2.006;2022-10-18T02:04:56;101877.47;;;6.34;90.57
66668;BME280;57205;51.438;-2.006;2022-10-18T02:10:06;101882.78;;;6.34;91.02
66668;BME280;57205;51.438;-2.006;2022-10-18T02:12:33;101894.84;;;6.30;90.58
66668;BME280;57205;51.438;-2.006;2022-10-18T02:14:59;101886.66;;;6.25;90.42
66668;BME280;57205;51.438;-2.006;2022-10-18T02:17:28;101877.47;;;6.21;90.85
66668;BME280;57205;51.438;-2.006;2022-10-18T02:19:55;101881.75;;;6.16;90.57
66668;BME280;57205;51.438;-2.006;2022-10-18T02:22:24;101882.97;;;6.13;91.15
66668;BME280;57205;51.438;-2.006;2022-10-18T02:24:52;101883.19;;;6.18;91.34
66668;BME280;57205;51.438;-2.006;2022-10-18T02:27:19;101882.78;;;6.21;91.64
66668;BME280;57205;51.438;-2.006;2022-10-18T02:29:45;101889.75;;;6.22;91.72
66668;BME280;57205;51.438;-2.006;2022-10-18T02:32:17;101894.66;;;6.25;91.45
66668;BME280;57205;51.438;-2.006;2022-10-18T02:34:50;101893.03;;;6.24;91.10
66668;BME280;57205;51.438;-2.006;2022-10-18T02:37:20;101893.84;;;6.18;90.96
66668;BME280;57205;51.438;-2.006;2022-10-18T02:39:47;101895.47;;;6.13;90.37
66668;BME280;57205;51.438;-2.006;2022-10-18T02:42:14;101892.56;;;6.08;89.97
66668;BME280;57205;51.438;-2.006;2022-10-18T02:44:40;101901.38;;;6.02;90.04
66668;BME280;57205;51.438;-2.006;2022-10-18T02:47:10;101899.53;;;5.96;90.63
66668;BME280;57205;51.438;-2.006;2022-10-18T02:49:36;101905.66;;;5.96;90.90
66668;BME280;57205;51.438;-2.006;2022-10-18T02:52:01;101912.22;;;6.00;91.09
66668;BME280;57205;51.438;-2.006;2022-10-18T02:54:27;101908.31;;;6.03;90.66
66668;BME280;57205;51.438;-2.006;2022-10-18T02:56:52;101914.44;;;5.97;90.61
66668;BME280;57205;51.438;-2.006;2022-10-18T02:59:18;101916.69;;;5.93;90.17
66668;BME280;57205;51.438;-2.006;2022-10-18T03:01:43;101923.03;;;5.92;90.64
66668;BME280;57205;51.438;-2.006;2022-10-18T03:04:10;101924.44;;;5.94;90.82
66668;BME280;57205;51.438;-2.006;2022-10-18T03:06:36;101922.03;;;6.00;91.68
66668;BME280;57205;51.438;-2.006;2022-10-18T03:09:03;101912.22;;;6.07;91.38
66668;BME280;57205;51.438;-2.006;2022-10-18T03:11:28;101910.59;;;6.12;91.52
66668;BME280;57205;51.438;-2.006;2022-10-18T03:13:54;101910.16;;;6.15;90.67
66668;BME280;57205;51.438;-2.006;2022-10-18T03:16:19;101901.38;;;6.08;90.05
66668;BME280;57205;51.438;-2.006;2022-10-18T03:18:45;101905.66;;;6.03;89.36
66668;BME280;57205;51.438;-2.006;2022-10-18T03:21:10;101908.31;;;5.96;88.93
66668;BME280;57205;51.438;-2.006;2022-10-18T03:23:36;101908.50;;;5.88;88.88
66668;BME280;57205;51.438;-2.006;2022-10-18T03:26:01;101915.81;;;5.79;88.52
66668;BME280;57205;51.438;-2.006;2022-10-18T03:28:27;101914.16;;;5.72;88.88
66668;BME280;57205;51.438;-2.006;2022-10-18T03:30:52;101911.69;;;5.64;89.12
66668;BME280;57205;51.438;-2.006;2022-10-18T03:33:18;101910.84;;;5.63;89.62
66668;BME280;57205;51.438;-2.006;2022-10-18T03:35:43;101911.88;;;5.62;89.65
66668;BME280;57205;51.438;-2.006;2022-10-18T03:38:09;101909.03;;;5.57;90.05
66668;BME280;57205;51.438;-2.006;2022-10-18T03:40:34;101912.25;;;5.53;89.89
66668;BME280;57205;51.438;-2.006;2022-10-18T03:43:00;101916.94;;;5.44;90.28
66668;BME280;57205;51.438;-2.006;2022-10-18T03:45:25;101911.59;;;5.38;90.26
66668;BME280;57205;51.438;-2.006;2022-10-18T03:47:51;101916.91;;;5.38;90.34
66668;BME280;57205;51.438;-2.006;2022-10-18T03:50:17;101920.75;;;5.35;90.92
66668;BME280;57205;51.438;-2.006;2022-10-18T03:52:42;101923.88;;;5.39;91.36
66668;BME280;57205;51.438;-2.006;2022-10-18T03:55:08;101934.47;;;5.39;91.98
66668;BME280;57205;51.438;-2.006;2022-10-18T03:57:33;101932.81;;;5.38;92.10
66668;BME280;57205;51.438;-2.006;2022-10-18T03:59:59;101932.41;;;5.34;92.33
66668;BME280;57205;51.438;-2.006;2022-10-18T04:02:24;101939.78;;;5.39;92.61
66668;BME280;57205;51.438;-2.006;2022-10-18T04:04:50;101945.09;;;5.45;92.93
66668;BME280;57205;51.438;-2.006;2022-10-18T04:07:16;101941.41;;;5.46;93.32
66668;BME280;57205;51.438;-2.006;2022-10-18T04:09:42;101934.72;;;5.50;93.42
66668;BME280;57205;51.438;-2.006;2022-10-18T04:12:09;101939.81;;;5.52;93.37
66668;BME280;57205;51.438;-2.006;2022-10-18T04:14:34;101941.25;;;5.48;93.13
66668;BME280;57205;51.438;-2.006;2022-10-18T04:17:00;101937.34;;;5.44;92.83
66668;BME280;57205;51.438;-2.006;2022-10-18T04:19:25;101943.03;;;5.41;92.41
66668;BME280;57205;51.438;-2.006;2022-10-18T04:21:52;101939.78;;;5.39;92.55
66668;BME280;57205;51.438;-2.006;2022-10-18T04:24:17;101941.63;;;5.38;93.07
66668;BME280;57205;51.438;-2.006;2022-10-18T04:26:43;101937.94;;;5.39;92.94
66668;BME280;57205;51.438;-2.006;2022-10-18T04:29:08;101954.25;;;5.36;92.16
66668;BME280;57205;51.438;-2.006;2022-10-18T04:31:34;101950.75;;;5.29;91.61
66668;BME280;57205;51.438;-2.006;2022-10-18T04:33:59;101954.19;;;5.23;91.46
66668;BME280;57205;51.438;-2.006;2022-10-18T04:36:27;101953.16;;;5.18;91.84
66668;BME280;57205;51.438;-2.006;2022-10-18T04:38:54;101952.53;;;5.16;91.61
66668;BME280;57205;51.438;-2.006;2022-10-18T04:41:19;101957.19;;;5.14;91.85
66668;BME280;57205;51.438;-2.006;2022-10-18T04:43:44;101956.97;;;5.09;92.14
66668;BME280;57205;51.438;-2.006;2022-10-18T04:46:10;101961.66;;;5.07;92.49
66668;BME280;57205;51.438;-2.006;2022-10-18T04:48:35;101965.94;;;5.08;92.55
66668;BME280;57205;51.438;-2.006;2022-10-18T04:51:01;101961.25;;;5.10;92.72
66668;BME280;57205;51.438;-2.006;2022-10-18T04:53:26;101958.03;;;5.14;93.26
66668;BME280;57205;51.438;-2.006;2022-10-18T04:55:51;101967.41;;;5.17;92.94
66668;BME280;57205;51.438;-2.006;2022-10-18T04:58:17;101961.72;;;5.20;93.97
66668;BME280;57205;51.438;-2.006;2022-10-18T05:00:43;101972.16;;;5.28;94.17
66668;BME280;57205;51.438;-2.006;2022-10-18T05:03:10;101967.91;;;5.33;94.19
66668;BME280;57205;51.438;-2.006;2022-10-18T05:05:36;101976.13;;;5.38;94.39
66668;BME280;57205;51.438;-2.006;2022-10-18T05:08:02;101978.16;;;5.43;94.59
66668;BME280;57205;51.438;-2.006;2022-10-18T05:10:28;101984.09;;;5.45;94.08
66668;BME280;57205;51.438;-2.006;2022-10-18T05:12:53;101994.50;;;5.46;93.46
66668;BME280;57205;51.438;-2.006;2022-10-18T05:15:19;101979.41;;;5.47;94.08
66668;BME280;57205;51.438;-2.006;2022-10-18T05:17:44;101981.50;;;5.51;94.83
66668;BME280;57205;51.438;-2.006;2022-10-18T05:20:10;101987.22;;;5.55;94.82
66668;BME280;57205;51.438;-2.006;2022-10-18T05:22:35;101986.78;;;5.51;94.48
66668;BME280;57205;51.438;-2.006;2022-10-18T05:25:01;101983.31;;;5.51;94.17
66668;BME280;57205;51.438;-2.006;2022-10-18T05:27:27;101979.22;;;5.48;94.28
66668;BME280;57205;51.438;-2.006;2022-10-18T05:29:53;101984.72;;;5.47;93.94
66668;BME280;57205;51.438;-2.006;2022-10-18T05:32:18;101984.72;;;5.47;94.12
66668;BME280;57205;51.438;-2.006;2022-10-18T05:34:44;101989.19;;;5.46;93.87
66668;BME280;57205;51.438;-2.006;2022-10-18T05:37:09;101986.94;;;5.43;93.77
66668;BME280;57205;51.438;-2.006;2022-10-18T05:39:36;101991.63;;;5.41;94.09
66668;BME280;57205;51.438;-2.006;2022-10-18T05:42:04;101991.44;;;5.43;93.23
66668;BME280;57205;51.438;-2.006;2022-10-18T05:44:29;101996.72;;;5.36;93.50
66668;BME280;57205;51.438;-2.006;2022-10-18T05:46:55;101994.41;;;5.27;94.35
66668;BME280;57205;51.438;-2.006;2022-10-18T05:49:21;101990.75;;;5.28;94.19
66668;BME280;57205;51.438;-2.006;2022-10-18T05:51:46;101985.84;;;5.25;94.18
66668;BME280;57205;51.438;-2.006;2022-10-18T05:54:12;101979.31;;;5.27;94.57
66668;BME280;57205;51.438;-2.006;2022-10-18T05:56:38;101984.63;;;5.27;94.54
66668;BME280;57205;51.438;-2.006;2022-10-18T05:59:04;101981.56;;;5.24;94.92
66668;BME280;57205;51.438;-2.006;2022-10-18T06:01:35;101976.41;;;5.22;94.80
66668;BME280;57205;51.438;-2.006;2022-10-18T06:04:00;101980.53;;;5.25;94.88
66668;BME280;57205;51.438;-2.006;2022-10-18T06:06:26;101976.03;;;5.25;95.10
66668;BME280;57205;51.438;-2.006;2022-10-18T06:08:51;101980.13;;;5.28;95.54
66668;BME280;57205;51.438;-2.006;2022-10-18T06:11:18;101977.28;;;5.29;95.27
66668;BME280;57205;51.438;-2.006;2022-10-18T06:13:46;101981.38;;;5.32;95.66
66668;BME280;57205;51.438;-2.006;2022-10-18T06:16:14;101987.72;;;5.31;94.66
66668;BME280;57205;51.438;-2.006;2022-10-18T06:18:39;101987.09;;;5.29;94.73
66668;BME280;57205;51.438;-2.006;2022-10-18T06:21:05;101990.75;;;5.28;94.91
66668;BME280;57205;51.438;-2.006;2022-10-18T06:23:31;101992.59;;;5.27;95.60
66668;BME280;57205;51.438;-2.006;2022-10-18T06:26:02;101996.44;;;5.25;95.48
66668;BME280;57205;51.438;-2.006;2022-10-18T06:28:30;101988.09;;;5.28;95.45
66668;BME280;57205;51.438;-2.006;2022-10-18T06:30:56;101993.56;;;5.20;94.58
66668;BME280;57205;51.438;-2.006;2022-10-18T06:33:22;101997.22;;;5.19;94.62
66668;BME280;57205;51.438;-2.006;2022-10-18T06:36:01;101998.25;;;5.18;94.80
66668;BME280;57205;51.438;-2.006;2022-10-18T06:38:27;102008.84;;;5.18;94.92
66668;BME280;57205;51.438;-2.006;2022-10-18T06:40:54;102009.25;;;5.15;94.79
66668;BME280;57205;51.438;-2.006;2022-10-18T06:43:20;102006.59;;;5.15;94.84
66668;BME280;57205;51.438;-2.006;2022-10-18T06:45:46;102007.81;;;5.19;95.47
66668;BME280;57205;51.438;-2.006;2022-10-18T06:48:11;102014.59;;;5.21;95.50
66668;BME280;57205;51.438;-2.006;2022-10-18T06:50:37;102020.13;;;5.26;95.61
66668;BME280;57205;51.438;-2.006;2022-10-18T06:53:03;102015.66;;;5.27;94.89
66668;BME280;57205;51.438;-2.006;2022-10-18T06:55:30;102015.25;;;5.30;94.85
66668;BME280;57205;51.438;-2.006;2022-10-18T06:57:56;102015.50;;;5.35;94.10
66668;BME280;57205;51.438;-2.006;2022-10-18T07:00:22;102021.84;;;5.40;93.69
66668;BME280;57205;51.438;-2.006;2022-10-18T07:02:47;102031.25;;;5.43;93.90
66668;BME280;57205;51.438;-2.006;2022-10-18T07:05:13;102025.16;;;5.49;94.59
66668;BME280;57205;51.438;-2.006;2022-10-18T07:07:38;102030.53;;;5.55;94.46
66668;BME280;57205;51.438;-2.006;2022-10-18T07:10:05;102035.03;;;5.61;94.08
66668;BME280;57205;51.438;-2.006;2022-10-18T07:12:31;102032.78;;;5.65;93.50
66668;BME280;57205;51.438;-2.006;2022-10-18T07:14:57;102046.94;;;5.72;93.12
66668;BME280;57205;51.438;-2.006;2022-10-18T07:17:22;102043.09;;;5.81;92.32
66668;BME280;57205;51.438;-2.006;2022-10-18T07:19:48;102044.78;;;5.88;91.99
66668;BME280;57205;51.438;-2.006;2022-10-18T07:22:14;102041.72;;;5.91;91.00
66668;BME280;57205;51.438;-2.006;2022-10-18T07:24:39;102046.25;;;6.04;90.92
66668;BME280;57205;51.438;-2.006;2022-10-18T07:27:05;102051.19;;;6.07;89.98
66668;BME280;57205;51.438;-2.006;2022-10-18T07:29:31;102041.84;;;6.24;89.77
66668;BME280;57205;51.438;-2.006;2022-10-18T07:31:56;102054.59;;;6.48;89.29
66668;BME280;57205;51.438;-2.006;2022-10-18T07:34:22;102048.47;;;6.87;88.41
66668;BME280;57205;51.438;-2.006;2022-10-18T07:36:47;102043.31;;;7.31;86.45
66668;BME280;57205;51.438;-2.006;2022-10-18T07:39:13;102038.06;;;7.75;83.17
66668;BME280;57205;51.438;-2.006;2022-10-18T07:41:38;102037.63;;;8.29;80.49
66668;BME280;57205;51.438;-2.006;2022-10-18T07:44:04;102040.63;;;8.70;78.08
66668;BME280;57205;51.438;-2.006;2022-10-18T07:46:30;102039.09;;;9.06;75.93
66668;BME280;57205;51.438;-2.006;2022-10-18T07:48:56;102043.59;;;9.30;74.18
66668;BME280;57205;51.438;-2.006;2022-10-18T07:51:23;102049.56;;;9.50;73.32
66668;BME280;57205;51.438;-2.006;2022-10-18T07:53:49;102046.50;;;9.46;73.07
66668;BME280;57205;51.438;-2.006;2022-10-18T07:56:18;102048.19;;;9.23;73.92
66668;BME280;57205;51.438;-2.006;2022-10-18T07:58:50;102048.38;;;9.03;74.16
66668;BME280;57205;51.438;-2.006;2022-10-18T08:01:17;102047.81;;;8.70;75.37
66668;BME280;57205;51.438;-2.006;2022-10-18T08:03:42;102037.81;;;8.65;76.24
66668;BME280;57205;51.438;-2.006;2022-10-18T08:06:10;102053.13;;;8.45;76.98
66668;BME280;57205;51.438;-2.006;2022-10-18T08:08:37;102057.66;;;8.38;78.00
66668;BME280;57205;51.438;-2.006;2022-10-18T08:11:20;102062.41;;;8.36;79.00
66668;BME280;57205;51.438;-2.006;2022-10-18T08:13:47;102063.97;;;8.50;79.29
66668;BME280;57205;51.438;-2.006;2022-10-18T08:16:15;102072.50;;;8.65;78.66
66668;BME280;57205;51.438;-2.006;2022-10-18T08:18:42;102073.47;;;8.96;77.79
66668;BME280;57205;51.438;-2.006;2022-10-18T08:21:09;102080.50;;;9.15;77.73
66668;BME280;57205;51.438;-2.006;2022-10-18T08:23:36;102077.56;;;9.23;75.67
66668;BME280;57205;51.438;-2.006;2022-10-18T08:26:06;102077.72;;;9.28;76.77
66668;BME280;57205;51.438;-2.006;2022-10-18T08:28:32;102084.78;;;9.40;77.38
66668;BME280;57205;51.438;-2.006;2022-10-18T08:31:12;102090.97;;;9.59;76.82
66668;BME280;57205;51.438;-2.006;2022-10-18T08:33:38;102094.94;;;9.74;75.93
66668;BME280;57205;51.438;-2.006;2022-10-18T08:36:05;102095.50;;;9.95;75.67
66668;BME280;57205;51.438;-2.006;2022-10-18T08:38:35;102092.66;;;10.14;75.53
66668;BME280;57205;51.438;-2.006;2022-10-18T08:46:27;102093.59;;;10.79;72.78
66668;BME280;57205;51.438;-2.006;2022-10-18T08:48:54;102096.69;;;10.64;74.59
66668;BME280;57205;51.438;-2.006;2022-10-18T08:54:05;102096.88;;;10.51;75.80
66668;BME280;57205;51.438;-2.006;2022-10-18T08:56:33;102087.59;;;10.65;75.45
66668;BME280;57205;51.438;-2.006;2022-10-18T08:59:01;102089.22;;;10.66;76.24
66668;BME280;57205;51.438;-2.006;2022-10-18T09:01:59;102092.81;;;11.02;74.98
66668;BME280;57205;51.438;-2.006;2022-10-18T09:13:03;102098.78;;;11.27;74.83
66668;BME280;57205;51.438;-2.006;2022-10-18T09:20:51;102091.66;;;11.44;76.58
66668;BME280;57205;51.438;-2.006;2022-10-18T09:23:21;102085.34;;;11.85;75.15
66668;BME280;57205;51.438;-2.006;2022-10-18T09:26:01;102087.75;;;12.09;73.81
66668;BME280;57205;51.438;-2.006;2022-10-18T09:28:57;102088.31;;;12.67;72.78
66668;BME280;57205;51.438;-2.006;2022-10-18T09:31:44;102088.81;;;13.47;69.47
66668;BME280;57205;51.438;-2.006;2022-10-18T09:36:57;102083.28;;;14.40;66.87
66668;BME280;57205;51.438;-2.006;2022-10-18T09:39:34;102088.84;;;14.55;66.48
66668;BME280;57205;51.438;-2.006;2022-10-18T09:42:24;102090.59;;;15.03;63.97
66668;BME280;57205;51.438;-2.006;2022-10-18T09:44:56;102085.31;;;14.82;65.24
66668;BME280;57205;51.438;-2.006;2022-10-18T09:47:41;102084.53;;;14.54;66.35
66668;BME280;57205;51.438;-2.006;2022-10-18T09:52:57;102078.06;;;14.55;67.30
66668;BME280;57205;51.438;-2.006;2022-10-18T09:55:30;102082.06;;;14.53;67.92
66668;BME280;57205;51.438;-2.006;2022-10-18T09:57:59;102086.84;;;14.46;68.49
66668;BME280;57205;51.438;-2.006;2022-10-18T10:00:30;102082.38;;;14.56;68.96
66668;BME280;57205;51.438;-2.006;2022-10-18T10:02:59;102081.47;;;14.46;69.71
66668;BME280;57205;51.438;-2.006;2022-10-18T10:05:25;102088.31;;;14.58;69.74
66668;BME280;57205;51.438;-2.006;2022-10-18T10:07:57;102079.75;;;14.61;70.15
66668;BME280;57205;51.438;-2.006;2022-10-18T10:10:25;102092.75;;;14.70;70.23
66668;BME280;57205;51.438;-2.006;2022-10-18T10:13:13;102088.53;;;14.79;70.24
66668;BME280;57205;51.438;-2.006;2022-10-18T10:15:45;102087.25;;;14.86;70.80
66668;BME280;57205;51.438;-2.006;2022-10-18T10:18:34;102088.25;;;14.80;71.41
66668;BME280;57205;51.438;-2.006;2022-10-18T10:21:04;102086.44;;;14.86;71.45
66668;BME280;57205;51.438;-2.006;2022-10-18T10:28:44;102096.09;;;14.82;72.63
66668;BME280;57205;51.438;-2.006;2022-10-18T10:31:30;102099.88;;;14.81;72.69
66668;BME280;57205;51.438;-2.006;2022-10-18T10:34:03;102097.72;;;14.83;73.15
66668;BME280;57205;51.438;-2.006;2022-10-18T10:36:30;102094.84;;;14.94;73.63
66668;BME280;57205;51.438;-2.006;2022-10-18T10:41:31;102092.38;;;15.24;74.23
66668;BME280;57205;51.438;-2.006;2022-10-18T10:43:57;102083.25;;;15.25;74.46
66668;BME280;57205;51.438;-2.006;2022-10-18T10:46:32;102098.47;;;15.41;74.44
66668;BME280;57205;51.438;-2.006;2022-10-18T10:48:59;102094.63;;;15.37;73.40
66668;BME280;57205;51.438;-2.006;2022-10-18T10:51:37;102096.91;;;15.45;73.80
66668;BME280;57205;51.438;-2.006;2022-10-18T10:57:01;102104.28;;;15.65;72.64
66668;BME280;57205;51.438;-2.006;2022-10-18T10:59:41;102100.00;;;15.69;72.80
66668;BME280;57205;51.438;-2.006;2022-10-18T11:04:40;102097.31;;;15.74;72.21
66668;BME280;57205;51.438;-2.006;2022-10-18T11:09:57;102089.81;;;15.86;70.99
66668;BME280;57205;51.438;-2.006;2022-10-18T11:25:15;102090.03;;;15.75;69.92
66668;BME280;57205;51.438;-2.006;2022-10-18T11:33:30;102084.06;;;15.68;69.37
66668;BME280;57205;51.438;-2.006;2022-10-18T11:36:17;102091.81;;;15.59;69.53
66668;BME280;57205;51.438;-2.006;2022-10-18T11:42:10;102071.31;;;15.53;69.39
66668;BME280;57205;51.438;-2.006;2022-10-18T11:45:04;102067.78;;;15.52;70.03
66668;BME280;57205;51.438;-2.006;2022-10-18T11:52:54;102060.13;;;15.39;68.07
66668;BME280;57205;51.438;-2.006;2022-10-18T12:03:33;102049.81;;;15.31;67.59
66668;BME280;57205;51.438;-2.006;2022-10-18T12:06:12;102032.59;;;15.32;67.86
66668;BME280;57205;51.438;-2.006;2022-10-18T12:08:46;102041.22;;;15.34;67.45
66668;BME280;57205;51.438;-2.006;2022-10-18T12:11:17;102037.72;;;15.39;67.48
66668;BME280;57205;51.438;-2.006;2022-10-18T12:13:48;102035.63;;;15.41;67.70
66668;BME280;57205;51.438;-2.006;2022-10-18T12:16:18;102031.31;;;15.45;65.01
66668;BME280;57205;51.438;-2.006;2022-10-18T12:18:51;102021.38;;;15.50;65.52
66668;BME280;57205;51.438;-2.006;2022-10-18T12:21:21;102018.41;;;15.52;64.39
66668;BME280;57205;51.438;-2.006;2022-10-18T12:24:07;102021.66;;;15.49;63.66
66668;BME280;57205;51.438;-2.006;2022-10-18T12:26:35;102011.91;;;15.48;63.55
66668;BME280;57205;51.438;-2.006;2022-10-18T12:31:56;102003.31;;;15.51;64.34
66668;BME280;57205;51.438;-2.006;2022-10-18T12:34:32;101995.78;;;15.53;64.14
66668;BME280;57205;51.438;-2.006;2022-10-18T12:37:15;101987.41;;;15.59;63.53
66668;BME280;57205;51.438;-2.006;2022-10-18T12:42:28;101993.13;;;15.68;61.86
66668;BME280;57205;51.438;-2.006;2022-10-18T12:45:15;101993.41;;;15.72;60.65
66668;BME280;57205;51.438;-2.006;2022-10-18T12:47:42;101990.44;;;15.73;60.13
66668;BME280;57205;51.438;-2.006;2022-10-18T12:50:31;101987.75;;;15.78;59.93
66668;BME280;57205;51.438;-2.006;2022-10-18T12:55:36;101980.75;;;15.82;58.56
66668;BME280;57205;51.438;-2.006;2022-10-18T12:58:25;101979.66;;;15.83;58.72
66668;BME280;57205;51.438;-2.006;2022-10-18T13:01:02;101976.47;;;15.91;59.95
66668;BME280;57205;51.438;-2.006;2022-10-18T13:03:37;101970.28;;;15.96;60.46
66668;BME280;57205;51.438;-2.006;2022-10-18T13:06:03;101952.16;;;15.96;59.72
66668;BME280;57205;51.438;-2.006;2022-10-18T13:18:58;101954.38;;;16.14;57.05
66668;BME280;57205;51.438;-2.006;2022-10-18T13:21:45;101934.38;;;16.15;56.22
66668;BME280;57205;51.438;-2.006;2022-10-18T13:24:29;101943.03;;;16.17;56.24
66668;BME280;57205;51.438;-2.006;2022-10-18T13:35:54;101945.19;;;16.25;53.67
66668;BME280;57205;51.438;-2.006;2022-10-18T13:38:35;101940.03;;;16.24;53.94
66668;BME280;57205;51.438;-2.006;2022-10-18T13:41:04;101938.16;;;16.24;54.56
66668;BME280;57205;51.438;-2.006;2022-10-18T13:46:22;101929.53;;;16.27;54.17
66668;BME280;57205;51.438;-2.006;2022-10-18T14:00:07;101921.97;;;16.29;54.10
66668;BME280;57205;51.438;-2.006;2022-10-18T14:05:56;101922.78;;;16.40;53.41
66668;BME280;57205;51.438;-2.006;2022-10-18T14:08:41;101927.34;;;16.44;54.04
66668;BME280;57205;51.438;-2.006;2022-10-18T14:17:02;101925.19;;;16.67;53.43
66668;BME280;57205;51.438;-2.006;2022-10-18T14:19:42;101941.44;;;16.72;53.43
66668;BME280;57205;51.438;-2.006;2022-10-18T14:22:24;101944.41;;;16.70;52.66
66668;BME280;57205;51.438;-2.006;2022-10-18T14:24:55;101943.31;;;16.71;52.90
66668;BME280;57205;51.438;-2.006;2022-10-18T14:29:49;101937.09;;;16.76;53.79
66668;BME280;57205;51.438;-2.006;2022-10-18T14:32:31;101948.16;;;16.74;54.19
66668;BME280;57205;51.438;-2.006;2022-10-18T14:34:57;101931.94;;;16.74;55.08
66668;BME280;57205;51.438;-2.006;2022-10-18T14:37:35;101934.41;;;16.76;55.51
66668;BME280;57205;51.438;-2.006;2022-10-18T14:40:02;101923.03;;;16.79;56.07
66668;BME280;57205;51.438;-2.006;2022-10-18T14:42:28;101927.34;;;16.80;56.36
66668;BME280;57205;51.438;-2.006;2022-10-18T14:44:54;101926.56;;;16.79;55.91
66668;BME280;57205;51.438;-2.006;2022-10-18T14:47:24;101927.88;;;16.82;55.76
66668;BME280;57205;51.438;-2.006;2022-10-18T14:49:51;101939.25;;;16.79;56.14
66668;BME280;57205;51.438;-2.006;2022-10-18T14:52:30;101931.16;;;16.69;56.29
66668;BME280;57205;51.438;-2.006;2022-10-18T14:54:57;101929.56;;;16.63;55.93
66668;BME280;57205;51.438;-2.006;2022-10-18T14:57:30;101926.03;;;16.57;55.77
66668;BME280;57205;51.438;-2.006;2022-10-18T14:59:59;101926.88;;;16.47;56.01
66668;BME280;57205;51.438;-2.006;2022-10-18T15:02:28;101929.00;;;16.45;56.88
66668;BME280;57205;51.438;-2.006;2022-10-18T15:04:57;101928.19;;;16.40;57.57
66668;BME280;57205;51.438;-2.006;2022-10-18T15:07:23;101927.91;;;16.36;58.29
66668;BME280;57205;51.438;-2.006;2022-10-18T15:09:54;101924.41;;;16.36;58.43
66668;BME280;57205;51.438;-2.006;2022-10-18T15:12:20;101930.59;;;16.31;58.32
66668;BME280;57205;51.438;-2.006;2022-10-18T15:14:46;101927.34;;;16.24;59.02
66668;BME280;57205;51.438;-2.006;2022-10-18T15:17:20;101925.22;;;16.21;59.96
66668;BME280;57205;51.438;-2.006;2022-10-18T15:22:27;101928.97;;;16.15;60.28
66668;BME280;57205;51.438;-2.006;2022-10-18T15:25:13;101925.72;;;16.13;61.16
66668;BME280;57205;51.438;-2.006;2022-10-18T15:27:40;101930.03;;;16.09;61.69
66668;BME280;57205;51.438;-2.006;2022-10-18T15:30:17;101929.78;;;16.06;62.02